Time;durP1;ratioP1;P1;durP2;ratioP2;P2;SDS_P1;SDS_P2;PMS_P1;PMS_P2;Temp;Humidity;BMP_temperature;BMP_pressure;BME280_temperature;BME280_humidity;BME280_pressure;Samples;Min_cycle;Max_cycle;Signal;HPM_P1;HPM_P2
2022/12/03 00:00:16;;;;;;;1999.90;999.90;;;3.10;99.90;;;;;;4935865;29;20471;-76
2022/12/03 00:02:42;;;;;;;1999.90;999.90;;;3.10;99.90;;;;;;4940949;29;20107;-74
2022/12/03 00:05:09;;;;;;;1999.90;999.90;;;3.10;99.90;;;;;;4961948;28;20024;-74
2022/12/03 00:07:34;;;;;;;1999.90;999.90;;;3.10;99.90;;;;;;4945663;28;20048;-75
2022/12/03 00:10:00;;;;;;;1999.90;999.90;;;3.10;99.90;;;;;;4936946;29;20036;-75
2022/12/03 00:12:25;;;;;;;1999.90;999.90;;;3.10;99.90;;;;;;4937206;29;20036;-75
2022/12/03 00:14:51;;;;;;;1999.90;999.90;;;3.00;99.90;;;;;;4937025;29;20031;-75
2022/12/03 00:17:16;;;;;;;1999.90;999.90;;;3.10;99.90;;;;;;4935536;29;20480;-74
2022/12/03 00:19:42;;;;;;;1999.90;999.90;;;3.00;99.90;;;;;;4935315;29;20040;-75
2022/12/03 00:22:08;;;;;;;1999.90;999.90;;;3.00;99.90;;;;;;4936889;29;20486;-75
2022/12/03 00:24:33;;;;;;;1999.90;999.90;;;3.00;99.90;;;;;;4937010;29;20144;-75
2022/12/03 00:26:59;;;;;;;1999.90;999.90;;;3.00;99.90;;;;;;4936869;29;20040;-75
2022/12/03 00:29:24;;;;;;;1999.90;999.90;;;3.00;99.90;;;;;;4937190;29;20028;-75
2022/12/03 05:01:07;;;;;;;1999.90;999.90;;;2.80;99.90;;;;;;5685999;23;20053;-74
2022/12/03 05:03:32;;;;;;;1999.90;999.90;;;2.80;99.90;;;;;;4993352;28;20042;-74
2022/12/03 05:05:58;;;;;;;1999.90;999.90;;;2.80;99.90;;;;;;4994466;28;20047;-74
2022/12/03 05:08:23;;;;;;;1999.90;999.90;;;2.80;99.90;;;;;;4994425;28;20053;-74
2022/12/03 05:10:49;;;;;;;1999.90;999.90;;;2.70;99.90;;;;;;4993664;28;20408;-74
2022/12/03 05:13:14;;;;;;;1999.90;999.90;;;2.70;99.90;;;;;;4994370;28;20491;-74
2022/12/03 05:15:40;;;;;;;1999.90;999.90;;;2.80;99.90;;;;;;5000929;22;20050;-74
2022/12/03 05:18:05;;;;;;;1999.90;999.90;;;2.80;99.90;;;;;;4992740;28;20114;-74
2022/12/03 05:20:43;;;;;;;1999.90;999.90;;;2.90;99.90;;;;;;4993895;28;20111;-74
2022/12/03 05:23:10;;;;;;;1999.90;999.90;;;2.90;99.90;;;;;;4994385;28;20057;-74
2022/12/03 05:25:35;;;;;;;1999.90;999.90;;;2.80;99.90;;;;;;4993825;28;20046;-74
2022/12/03 05:28:01;;;;;;;1999.90;999.90;;;2.90;99.90;;;;;;4996500;28;20474;-74
2022/12/03 05:30:26;;;;;;;1999.90;999.90;;;2.90;99.90;;;;;;4995784;28;20452;-74
2022/12/03 05:32:52;;;;;;;1999.90;999.90;;;2.80;99.90;;;;;;4996174;28;20035;-74
2022/12/03 05:35:18;;;;;;;1999.90;999.90;;;2.80;99.90;;;;;;4995812;28;20431;-74
2022/12/03 05:37:43;;;;;;;1999.90;999.90;;;2.80;99.90;;;;;;4996028;28;20539;-74
2022/12/03 05:40:09;;;;;;;1999.90;999.90;;;2.80;99.90;;;;;;4996964;28;20396;-74
2022/12/03 05:43:08;;;;;;;1999.90;999.90;;;2.80;99.90;;;;;;4996299;28;20111;-74
2022/12/03 05:45:33;;;;;;;1999.90;999.90;;;2.80;99.90;;;;;;4996659;28;20047;-74
2022/12/03 05:47:59;;;;;;;1999.90;999.90;;;2.80;99.90;;;;;;4997384;28;20135;-74
2022/12/03 05:50:29;;;;;;;1999.90;999.90;;;2.80;99.90;;;;;;4997134;28;20428;-74
2022/12/03 05:52:55;;;;;;;1999.90;999.90;;;2.80;99.90;;;;;;4995917;28;20045;-74
2022/12/03 05:55:22;;;;;;;1999.90;999.90;;;2.90;99.90;;;;;;4996834;28;20545;-74
2022/12/03 05:57:47;;;;;;;1999.90;999.90;;;2.90;99.90;;;;;;4996926;28;20386;-74
2022/12/03 06:00:22;;;;;;;1999.90;999.90;;;2.90;99.90;;;;;;4996966;28;20039;-74
2022/12/03 06:02:48;;;;;;;1999.90;999.90;;;2.80;99.90;;;;;;4997017;28;20566;-74
2022/12/03 06:05:15;;;;;;;1999.90;999.90;;;2.90;99.90;;;;;;4996814;28;20122;-74
2022/12/03 06:07:41;;;;;;;1999.90;999.90;;;2.90;99.90;;;;;;4996972;28;20041;-74
2022/12/03 06:10:09;;;;;;;1999.90;999.90;;;2.90;99.90;;;;;;4996600;28;20082;-73
2022/12/03 06:12:34;;;;;;;1999.90;999.90;;;2.90;99.90;;;;;;4996846;28;20070;-74
2022/12/03 06:15:00;;;;;;;1999.90;999.90;;;3.00;99.90;;;;;;4996589;28;20094;-74
2022/12/03 06:17:26;;;;;;;1999.90;999.90;;;2.90;99.90;;;;;;4996683;28;20027;-74
2022/12/03 06:19:52;;;;;;;1999.90;999.90;;;3.00;99.90;;;;;;4995108;28;20549;-74
2022/12/03 06:22:17;;;;;;;1999.90;999.90;;;3.00;99.90;;;;;;4995205;28;20031;-73
2022/12/03 06:24:43;;;;;;;1999.90;999.90;;;3.00;99.90;;;;;;4994998;28;20536;-74
2022/12/03 06:27:09;;;;;;;1999.90;999.90;;;2.90;99.90;;;;;;4996628;28;20038;-74
2022/12/03 06:29:35;;;;;;;1999.90;999.90;;;2.90;99.90;;;;;;4996630;28;20046;-74
2022/12/03 06:32:01;;;;;;;1999.90;999.90;;;2.90;99.90;;;;;;4996653;28;20041;-74
2022/12/03 06:34:26;;;;;;;1999.90;999.90;;;2.90;99.90;;;;;;4996594;28;20437;-74
2022/12/03 06:36:52;;;;;;;1999.90;999.90;;;2.90;99.90;;;;;;4997103;28;20046;-74
2022/12/03 06:39:17;;;;;;;1999.90;999.90;;;2.90;99.90;;;;;;4995656;28;20035;-74
2022/12/03 06:41:43;;;;;;;1999.90;999.90;;;2.90;99.90;;;;;;4996234;28;20551;-76
2022/12/03 06:44:09;;;;;;;1999.90;999.90;;;2.90;99.90;;;;;;4996531;28;20035;-76
2022/12/03 06:46:35;;;;;;;1999.90;999.90;;;3.00;99.90;;;;;;4996495;28;20065;-76
2022/12/03 06:49:01;;;;;;;1999.90;999.90;;;3.10;99.90;;;;;;5002092;28;20037;-75
2022/12/03 06:51:26;;;;;;;1999.90;999.90;;;3.10;99.90;;;;;;5021809;28;20038;-75
2022/12/03 06:53:52;;;;;;;1999.90;999.90;;;3.10;99.90;;;;;;5003568;28;20086;-76
2022/12/03 06:56:18;;;;;;;1999.90;999.90;;;3.10;99.90;;;;;;4994766;28;20034;-76
2022/12/03 06:58:43;;;;;;;1999.90;999.90;;;3.10;99.90;;;;;;4996669;28;20442;-76
2022/12/03 07:01:09;;;;;;;1999.90;999.90;;;3.10;99.90;;;;;;4995924;28;20106;-76
2022/12/03 07:03:34;;;;;;;1999.90;999.90;;;3.10;99.90;;;;;;4995978;28;20035;-75
2022/12/03 07:06:00;;;;;;;1999.90;999.90;;;3.10;99.90;;;;;;4996003;28;20042;-76
2022/12/03 07:08:26;;;;;;;1999.90;999.90;;;3.10;99.90;;;;;;4996043;28;20082;-76
2022/12/03 07:10:52;;;;;;;1999.90;999.90;;;3.10;99.90;;;;;;4996155;28;20563;-76
2022/12/03 07:13:17;;;;;;;1999.90;999.90;;;3.10;99.90;;;;;;4996022;28;20059;-76
2022/12/03 07:15:43;;;;;;;1999.90;999.90;;;3.00;99.90;;;;;;4995486;28;20050;-76
2022/12/03 07:18:09;;;;;;;1999.90;999.90;;;3.10;99.90;;;;;;4995823;28;20026;-76
2022/12/03 07:20:34;;;;;;;1999.90;999.90;;;3.00;99.90;;;;;;4995709;28;20117;-76
2022/12/03 07:23:00;;;;;;;1999.90;999.90;;;3.10;99.90;;;;;;4995701;28;20113;-76
2022/12/03 07:25:25;;;;;;;1999.90;999.90;;;3.10;99.90;;;;;;4995761;28;20515;-77
2022/12/03 07:27:51;;;;;;;1999.90;999.90;;;3.10;99.90;;;;;;4995915;28;20042;-76
2022/12/03 07:30:17;;;;;;;1999.90;999.90;;;3.10;99.90;;;;;;4995671;28;20042;-76
2022/12/03 07:32:42;;;;;;;1999.90;999.90;;;3.10;99.90;;;;;;4994376;28;20066;-76
2022/12/03 07:35:08;;;;;;;1999.90;999.90;;;3.20;99.90;;;;;;4995665;28;20035;-76
2022/12/03 07:37:34;;;;;;;1999.90;999.90;;;3.20;99.90;;;;;;4995741;28;20397;-77
2022/12/03 07:39:59;;;;;;;1999.90;999.90;;;3.10;99.90;;;;;;4995583;28;20046;-76
2022/12/03 07:42:25;;;;;;;1999.90;999.90;;;3.20;99.90;;;;;;4995561;28;20045;-76
2022/12/03 07:44:51;;;;;;;1999.90;999.90;;;3.20;99.90;;;;;;4995530;28;20477;-76
2022/12/03 07:47:16;;;;;;;1999.90;999.90;;;3.20;99.90;;;;;;4995536;28;20050;-76
2022/12/03 07:49:42;;;;;;;1999.90;999.90;;;3.30;99.90;;;;;;4995456;28;20031;-79
2022/12/03 07:52:07;;;;;;;1999.90;999.90;;;3.20;99.90;;;;;;4995293;28;20045;-77
2022/12/03 07:54:33;;;;;;;1999.90;999.90;;;3.30;99.90;;;;;;4995299;28;20090;-77
2022/12/03 07:56:59;;;;;;;1999.90;999.90;;;3.30;99.90;;;;;;4995224;28;20523;-78
2022/12/03 07:59:24;;;;;;;1999.90;999.90;;;3.40;99.90;;;;;;4995634;28;20082;-78
2022/12/03 08:01:50;;;;;;;1999.90;999.90;;;3.40;99.90;;;;;;4993456;28;20093;-76
2022/12/03 08:04:17;;;;;;;1999.90;999.90;;;3.50;99.90;;;;;;4978165;28;20046;-77
2022/12/03 08:06:46;;;;;;;1999.90;999.90;;;3.50;99.90;;;;;;4974258;28;20066;-77
2022/12/03 08:09:13;;;;;;;1999.90;999.90;;;3.50;99.90;;;;;;4975891;28;20486;-79
2022/12/03 08:11:38;;;;;;;1999.90;999.90;;;3.60;99.90;;;;;;4976652;28;20153;-78
2022/12/03 08:14:13;;;;;;;1999.90;999.90;;;3.60;99.90;;;;;;4977970;28;20114;-77
2022/12/03 08:16:40;;;;;;;1999.90;999.90;;;3.50;99.90;;;;;;4988653;28;20861;-77
2022/12/03 08:19:13;;;;;;;1999.90;999.90;;;3.60;99.90;;;;;;5014533;28;20475;-77
2022/12/03 08:21:39;;;;;;;1999.90;999.90;;;3.60;99.90;;;;;;5014703;28;20042;-77
2022/12/03 08:24:15;;;;;;;1999.90;999.90;;;3.60;99.90;;;;;;5014976;28;20030;-77
2022/12/03 08:26:43;;;;;;;1999.90;999.90;;;3.70;99.90;;;;;;5015983;28;20134;-78
2022/12/03 08:29:15;;;;;;;1999.90;999.90;;;3.80;99.90;;;;;;5016173;28;20058;-78
2022/12/03 08:31:46;;;;;;;1999.90;999.90;;;3.80;99.90;;;;;;5015356;28;20040;-78
2022/12/03 08:34:24;;;;;;;1999.90;999.90;;;3.80;99.90;;;;;;5013913;28;20037;-81
2022/12/03 08:36:56;;;;;;;1999.90;999.90;;;3.80;99.90;;;;;;5016197;28;20849;-77
2022/12/03 08:39:28;;;;;;;1999.90;999.90;;;3.90;99.90;;;;;;5017501;28;20070;-79
2022/12/03 08:44:42;;;;;;;1999.90;999.90;;;3.80;99.90;;;;;;5015772;28;20034;-78
2022/12/03 08:47:08;;;;;;;1999.90;999.90;;;3.90;99.90;;;;;;5015385;28;20038;-77
2022/12/03 08:49:34;;;;;;;1999.90;999.90;;;3.90;99.90;;;;;;5016316;28;20173;-79
2022/12/03 08:52:08;;;;;;;1999.90;999.90;;;3.90;99.90;;;;;;5014870;28;20038;-77
2022/12/03 08:54:33;;;;;;;1999.90;999.90;;;3.90;99.90;;;;;;4989194;28;20579;-78
2022/12/03 08:57:04;;;;;;;1999.90;999.90;;;3.80;99.90;;;;;;4995417;28;20108;-78
2022/12/03 08:59:31;;;;;;;1999.90;999.90;;;3.80;99.90;;;;;;4995195;28;20063;-77
2022/12/03 09:01:59;;;;;;;1999.90;999.90;;;3.80;99.90;;;;;;4987910;28;20046;-77
2022/12/03 09:04:45;;;;;;;1999.90;999.90;;;3.80;99.90;;;;;;4990090;28;20042;-77
2022/12/03 09:07:11;;;;;;;1999.90;999.90;;;3.80;99.90;;;;;;4982496;28;20493;-78
2022/12/03 09:09:37;;;;;;;1999.90;999.90;;;3.80;99.90;;;;;;4996402;28;20038;-78
2022/12/03 09:12:03;;;;;;;1999.90;999.90;;;3.80;99.90;;;;;;4986528;28;20072;-78
2022/12/03 09:14:29;;;;;;;1999.90;999.90;;;3.80;99.90;;;;;;4986876;28;20492;-78
2022/12/03 09:16:55;;;;;;;1999.90;999.90;;;3.90;99.90;;;;;;4991878;28;20043;-77
2022/12/03 09:19:22;;;;;;;1999.90;999.90;;;3.90;99.90;;;;;;4982163;28;20028;-77
2022/12/03 09:21:48;;;;;;;1999.90;999.90;;;4.00;99.90;;;;;;4992305;28;20039;-76
2022/12/03 09:24:14;;;;;;;1999.90;999.90;;;4.00;99.90;;;;;;4989336;28;20032;-76
2022/12/03 09:26:39;;;;;;;1999.90;999.90;;;4.10;99.90;;;;;;4989756;28;20056;-77
2022/12/03 09:29:05;;;;;;;1999.90;999.90;;;4.00;99.90;;;;;;4999965;28;20087;-79
2022/12/03 09:31:32;;;;;;;1999.90;999.90;;;4.00;99.90;;;;;;4999825;28;20039;-78
2022/12/03 09:33:59;;;;;;;1999.90;999.90;;;4.00;99.90;;;;;;5000254;28;20034;-77
2022/12/03 09:36:24;;;;;;;1999.90;999.90;;;4.00;99.90;;;;;;4990774;28;20167;-75
2022/12/03 09:38:50;;;;;;;1999.90;999.90;;;4.10;99.90;;;;;;5008053;28;20102;-74
2022/12/03 09:41:16;;;;;;;1999.90;999.90;;;4.10;99.90;;;;;;5017820;28;20055;-74
2022/12/03 09:43:41;;;;;;;1999.90;999.90;;;4.10;99.90;;;;;;4987310;28;20098;-77
2022/12/03 09:46:08;;;;;;;1999.90;999.90;;;4.10;99.90;;;;;;4985957;28;20042;-76
2022/12/03 09:48:34;;;;;;;1999.90;999.90;;;4.10;99.90;;;;;;4995332;28;20082;-77
2022/12/03 09:51:01;;;;;;;1999.90;999.90;;;4.20;99.90;;;;;;4999325;28;20047;-76
2022/12/03 09:53:27;;;;;;;1999.90;999.90;;;4.20;99.90;;;;;;4995163;28;20066;-77
2022/12/03 09:55:53;;;;;;;1999.90;999.90;;;4.20;99.90;;;;;;4995644;28;20094;-75
2022/12/03 09:58:19;;;;;;;1999.90;999.90;;;4.30;99.90;;;;;;4996291;28;20524;-76
2022/12/03 10:00:50;;;;;;;1999.90;999.90;;;4.40;99.90;;;;;;4996653;28;20101;-74
2022/12/03 10:03:19;;;;;;;1999.90;999.90;;;4.50;99.90;;;;;;4997046;28;20026;-74
2022/12/03 10:05:45;;;;;;;1999.90;999.90;;;4.50;99.90;;;;;;4980913;28;20074;-74
2022/12/03 10:08:16;;;;;;;1999.90;999.90;;;4.50;99.90;;;;;;4993484;28;20051;-74
2022/12/03 10:10:43;;;;;;;1999.90;999.90;;;4.60;99.90;;;;;;4992288;28;20409;-74
2022/12/03 10:13:15;;;;;;;1999.90;999.90;;;4.70;99.90;;;;;;4996680;28;20042;-73
2022/12/03 10:15:40;;;;;;;1999.90;999.90;;;4.70;99.90;;;;;;4980598;28;20039;-73
2022/12/03 10:18:17;;;;;;;1999.90;999.90;;;4.80;99.90;;;;;;4984000;28;20031;-73
2022/12/03 10:20:43;;;;;;;1999.90;999.90;;;4.80;99.90;;;;;;4980699;28;20094;-74
2022/12/03 10:23:08;;;;;;;1999.90;999.90;;;4.80;99.90;;;;;;4987839;28;20089;-74
2022/12/03 10:25:58;;;;;;;1999.90;999.90;;;4.90;99.90;;;;;;4982262;28;20039;-73
2022/12/03 10:28:30;;;;;;;1999.90;999.90;;;5.00;99.90;;;;;;4982261;28;20062;-74
2022/12/03 10:30:56;;;;;;;1999.90;999.90;;;5.20;99.90;;;;;;4977247;28;20481;-74
2022/12/03 10:33:28;;;;;;;1999.90;999.90;;;5.20;99.90;;;;;;4977441;28;20046;-75
2022/12/03 10:35:54;;;;;;;1999.90;999.90;;;5.20;99.90;;;;;;4977575;28;20114;-76
2022/12/03 10:38:21;;;;;;;1999.90;999.90;;;5.40;99.90;;;;;;4996083;28;20396;-74
2022/12/03 10:40:47;;;;;;;1999.90;999.90;;;5.40;99.90;;;;;;4988191;28;20094;-74
2022/12/03 10:43:18;;;;;;;1999.90;999.90;;;5.50;99.90;;;;;;4977840;28;20031;-73
2022/12/03 10:45:49;;;;;;;1999.90;999.90;;;5.50;99.90;;;;;;4989575;28;20038;-75
2022/12/03 10:48:20;;;;;;;1999.90;999.90;;;5.40;99.90;;;;;;4990605;28;20034;-74
2022/12/03 10:50:53;;;;;;;1999.90;999.90;;;5.40;99.90;;;;;;4993816;28;20050;-74
2022/12/03 10:53:21;;;;;;;1999.90;999.90;;;5.20;99.90;;;;;;4991580;28;20046;-75
2022/12/03 10:55:50;;;;;;;1999.90;999.90;;;5.10;99.90;;;;;;4994371;28;20488;-74
2022/12/03 10:58:26;;;;;;;1999.90;999.90;;;5.00;99.90;;;;;;4996355;28;20039;-75
2022/12/03 11:00:54;;;;;;;1999.90;999.90;;;4.90;99.90;;;;;;4990001;28;20038;-77
2022/12/03 11:03:33;;;;;;;1999.90;999.90;;;4.80;99.90;;;;;;4986241;28;20047;-74
2022/12/03 11:06:00;;;;;;;1999.90;999.90;;;4.80;99.90;;;;;;4979249;28;20539;-76
2022/12/03 11:08:30;;;;;;;1999.90;999.90;;;4.70;99.90;;;;;;4989263;28;20052;-74
2022/12/03 11:11:01;;;;;;;1999.90;999.90;;;4.70;99.90;;;;;;4995342;28;20062;-73
2022/12/03 11:13:32;;;;;;;1999.90;999.90;;;4.50;99.90;;;;;;4995156;28;20034;-75
2022/12/03 11:18:35;;;;;;;1999.90;999.90;;;4.50;99.90;;;;;;4974154;28;20063;-74
2022/12/03 11:21:05;;;;;;;1999.90;999.90;;;4.50;99.90;;;;;;4964638;28;20040;-72
2022/12/03 11:23:43;;;;;;;1999.90;999.90;;;4.40;99.90;;;;;;4972732;28;20765;-75
2022/12/03 11:26:29;;;;;;;1999.90;999.90;;;4.40;99.90;;;;;;4968243;28;20051;-72
2022/12/03 11:28:56;;;;;;;1999.90;999.90;;;4.40;99.90;;;;;;4942916;28;20572;-75
2022/12/03 11:31:45;;;;;;;1999.90;999.90;;;4.40;99.90;;;;;;4956321;28;20059;-73
2022/12/03 11:34:19;;;;;;;1999.90;999.90;;;4.30;99.90;;;;;;4955346;28;20036;-73
2022/12/03 11:37:10;;;;;;;1999.90;999.90;;;4.30;99.90;;;;;;4956546;28;20039;-72
2022/12/03 11:39:51;;;;;;;1999.90;999.90;;;4.30;99.90;;;;;;4956738;28;20064;-72
2022/12/03 11:42:25;;;;;;;1999.90;999.90;;;4.30;99.90;;;;;;4955134;28;20063;-73
2022/12/03 11:45:07;;;;;;;1999.90;999.90;;;4.30;99.90;;;;;;4956643;28;20032;-73
2022/12/03 11:47:42;;;;;;;1999.90;999.90;;;4.30;99.90;;;;;;4956307;28;20038;-73
2022/12/03 11:50:19;;;;;;;1999.90;999.90;;;4.30;99.90;;;;;;4956450;28;20036;-73
2022/12/03 11:52:48;;;;;;;1999.90;999.90;;;4.30;99.90;;;;;;4956636;28;20506;-73
2022/12/03 11:55:22;;;;;;;1999.90;999.90;;;4.40;99.90;;;;;;4956310;28;20114;-73
2022/12/03 11:57:48;;;;;;;1999.90;999.90;;;4.40;99.90;;;;;;4954785;28;20044;-73
2022/12/03 12:00:20;;;;;;;1999.90;999.90;;;4.40;99.90;;;;;;4954737;28;20032;-72
2022/12/03 12:02:47;;;;;;;1999.90;999.90;;;4.40;99.90;;;;;;4956196;28;20101;-73
2022/12/03 12:05:32;;;;;;;1999.90;999.90;;;4.40;99.90;;;;;;4956401;28;20163;-73
2022/12/03 12:07:59;;;;;;;1999.90;999.90;;;4.50;99.90;;;;;;4954649;28;20875;-73
2022/12/03 12:10:47;;;;;;;1999.90;999.90;;;4.50;99.90;;;;;;4954000;28;20046;-73
2022/12/03 12:13:31;;;;;;;1999.90;999.90;;;4.50;99.90;;;;;;4949295;28;20129;-73
2022/12/03 12:15:58;;;;;;;1999.90;999.90;;;4.50;99.90;;;;;;4956249;28;20067;-73
2022/12/03 12:18:44;;;;;;;1999.90;999.90;;;4.40;99.90;;;;;;4956467;28;20106;-72
2022/12/03 12:21:41;;;;;;;1999.90;999.90;;;4.40;99.90;;;;;;4957114;28;20036;-73
2022/12/03 12:24:28;;;;;;;1999.90;999.90;;;4.30;99.90;;;;;;4956203;28;20047;-72
2022/12/03 12:26:54;;;;;;;1999.90;999.90;;;4.30;99.90;;;;;;4954281;28;20095;-73
2022/12/03 12:29:20;;;;;;;1999.90;999.90;;;4.30;99.90;;;;;;4956422;28;20032;-73
2022/12/03 12:31:47;;;;;;;1999.90;999.90;;;4.40;99.90;;;;;;4955866;28;20047;-73
2022/12/03 12:34:13;;;;;;;1999.90;999.90;;;4.30;99.90;;;;;;4956187;28;20099;-73
2022/12/03 12:36:39;;;;;;;1999.90;999.90;;;4.30;99.90;;;;;;4954573;28;20035;-72
2022/12/03 12:39:14;;;;;;;1999.90;999.90;;;4.30;99.90;;;;;;4959369;28;20429;-73
2022/12/03 12:41:47;;;;;;;1999.90;999.90;;;4.30;99.90;;;;;;4959080;28;20055;-74
2022/12/03 12:44:13;;;;;;;1999.90;999.90;;;4.20;99.90;;;;;;4959311;28;20042;-72
2022/12/03 12:46:41;;;;;;;1999.90;999.90;;;4.30;99.90;;;;;;4957473;28;20046;-72
2022/12/03 12:49:11;;;;;;;1999.90;999.90;;;4.20;99.90;;;;;;4959421;28;20036;-72
2022/12/03 12:51:43;;;;;;;1999.90;999.90;;;4.20;99.90;;;;;;4959312;28;20483;-72
2022/12/03 12:54:11;;;;;;;1999.90;999.90;;;4.30;99.90;;;;;;4951785;28;20044;-72
2022/12/03 12:56:37;;;;;;;1999.90;999.90;;;4.30;99.90;;;;;;4952538;28;20587;-73
2022/12/03 12:59:13;;;;;;;1999.90;999.90;;;4.40;99.90;;;;;;4956834;28;20171;-73
2022/12/03 13:01:40;;;;;;;1999.90;999.90;;;4.30;99.90;;;;;;4959100;28;20514;-73
2022/12/03 13:04:16;;;;;;;1999.90;999.90;;;4.40;99.90;;;;;;4959416;28;20087;-73
2022/12/03 13:06:42;;;;;;;1999.90;999.90;;;4.40;99.90;;;;;;4943388;28;20043;-73
2022/12/03 13:09:15;;;;;;;1999.90;999.90;;;4.40;99.90;;;;;;4958657;28;20036;-74
2022/12/03 13:11:44;;;;;;;1999.90;999.90;;;4.40;99.90;;;;;;4958762;28;20556;-74
2022/12/03 13:14:25;;;;;;;1999.90;999.90;;;4.40;99.90;;;;;;4959023;28;20063;-79
2022/12/03 13:16:53;;;;;;;1999.90;999.90;;;4.30;99.90;;;;;;4951646;28;20462;-77
2022/12/03 13:19:27;;;;;;;1999.90;999.90;;;4.20;99.90;;;;;;4957448;28;20047;-75
2022/12/03 13:21:55;;;;;;;1999.90;999.90;;;4.20;99.90;;;;;;4958841;28;20536;-75
2022/12/03 13:24:34;;;;;;;1999.90;999.90;;;4.20;99.90;;;;;;4955481;28;20940;-77
2022/12/03 13:27:20;;;;;;;1999.90;999.90;;;4.20;99.90;;;;;;4957480;28;20107;-76
2022/12/03 13:30:17;;;;;;;1999.90;999.90;;;4.20;99.90;;;;;;4954877;28;20087;-76
2022/12/03 13:32:43;;;;;;;1999.90;999.90;;;4.10;99.90;;;;;;4952424;28;20086;-75
2022/12/03 13:35:22;;;;;;;1999.90;999.90;;;4.00;99.90;;;;;;4957072;28;20123;-75
2022/12/03 13:37:48;;;;;;;1999.90;999.90;;;4.00;99.90;;;;;;4952108;28;20506;-75
2022/12/03 13:40:24;;;;;;;1999.90;999.90;;;3.90;99.90;;;;;;4957954;28;20040;-76
2022/12/03 13:42:51;;;;;;;1999.90;999.90;;;3.90;99.90;;;;;;4953829;28;20491;-76
2022/12/03 13:45:17;;;;;;;1999.90;999.90;;;3.90;99.90;;;;;;4959216;28;20486;-75
2022/12/03 13:47:48;;;;;;;1999.90;999.90;;;3.90;99.90;;;;;;4958503;28;20036;-76
2022/12/03 13:50:39;;;;;;;1999.90;999.90;;;3.90;99.90;;;;;;4954176;28;20039;-77
2022/12/03 13:53:16;;;;;;;1999.90;999.90;;;3.90;99.90;;;;;;4954120;28;20044;-76
2022/12/03 13:55:47;;;;;;;1999.90;999.90;;;3.90;99.90;;;;;;4959633;28;20506;-78
2022/12/03 13:58:12;;;;;;;1999.90;999.90;;;3.90;99.90;;;;;;4959449;28;20046;-76
2022/12/03 14:00:38;;;;;;;1999.90;999.90;;;3.90;99.90;;;;;;4959257;28;20047;-76
2022/12/03 14:03:04;;;;;;;1999.90;999.90;;;3.90;99.90;;;;;;4957399;28;20043;-76
2022/12/03 14:05:29;;;;;;;1999.90;999.90;;;3.80;99.90;;;;;;4957547;28;20046;-82
2022/12/03 14:08:00;;;;;;;1999.90;999.90;;;3.80;99.90;;;;;;4956980;28;20062;-76
2022/12/03 14:10:27;;;;;;;1999.90;999.90;;;3.80;99.90;;;;;;4958821;28;20027;-75
2022/12/03 14:12:53;;;;;;;1999.90;999.90;;;3.80;99.90;;;;;;4959012;28;20040;-77
2022/12/03 14:15:20;;;;;;;1999.90;999.90;;;3.70;99.90;;;;;;4959281;28;20036;-79
2022/12/03 14:17:46;;;;;;;1999.90;999.90;;;3.70;99.90;;;;;;4957646;28;20039;-75
2022/12/03 14:20:12;;;;;;;1999.90;999.90;;;3.70;99.90;;;;;;4958594;28;20043;-75
2022/12/03 14:22:38;;;;;;;1999.90;999.90;;;3.60;99.90;;;;;;4958927;28;20131;-76
2022/12/03 14:25:05;;;;;;;1999.90;999.90;;;3.60;99.90;;;;;;4958877;28;20042;-76
2022/12/03 14:27:31;;;;;;;1999.90;999.90;;;3.60;99.90;;;;;;4957766;28;20043;-76
2022/12/03 14:29:57;;;;;;;1999.90;999.90;;;3.60;99.90;;;;;;4958245;28;20398;-78
2022/12/03 14:32:22;;;;;;;1999.90;999.90;;;3.60;99.90;;;;;;4956465;28;20118;-78
2022/12/03 14:34:48;;;;;;;1999.90;999.90;;;3.70;99.90;;;;;;4954637;28;20071;-77
2022/12/03 14:37:14;;;;;;;1999.90;999.90;;;3.60;99.90;;;;;;4957441;28;20040;-78
2022/12/03 14:39:39;;;;;;;1999.90;999.90;;;3.60;99.90;;;;;;4957140;28;20028;-80
2022/12/03 14:42:14;;;;;;;1999.90;999.90;;;3.60;99.90;;;;;;4956398;28;20036;-80
2022/12/03 14:44:44;;;;;;;1999.90;999.90;;;3.50;99.90;;;;;;4959148;28;20040;-79
2022/12/03 14:47:10;;;;;;;1999.90;999.90;;;3.60;99.90;;;;;;4959591;28;20044;-78
2022/12/03 14:49:36;;;;;;;1999.90;999.90;;;3.50;99.90;;;;;;4958141;28;20031;-84
2022/12/03 14:52:03;;;;;;;1999.90;999.90;;;3.50;99.90;;;;;;4959727;28;20039;-80
2022/12/03 14:54:29;;;;;;;1999.90;999.90;;;3.50;99.90;;;;;;4957179;28;20084;-77
2022/12/03 14:56:54;;;;;;;1999.90;999.90;;;3.50;99.90;;;;;;4947816;28;20127;-78
2022/12/03 14:59:22;;;;;;;1999.90;999.90;;;3.50;99.90;;;;;;4956068;28;20037;-79
2022/12/03 15:01:48;;;;;;;1999.90;999.90;;;3.60;99.90;;;;;;4958075;28;20040;-77
2022/12/03 15:04:14;;;;;;;1999.90;999.90;;;3.60;99.90;;;;;;4957116;28;20035;-78
2022/12/03 15:06:39;;;;;;;1999.90;999.90;;;3.60;99.90;;;;;;4955526;28;20055;-82
2022/12/03 15:09:05;;;;;;;1999.90;999.90;;;3.50;99.90;;;;;;4956230;28;20038;-79
2022/12/03 15:11:31;;;;;;;1999.90;999.90;;;3.50;99.90;;;;;;4956248;28;20046;-78
2022/12/03 15:13:56;;;;;;;1999.90;999.90;;;3.40;99.90;;;;;;4957564;28;20114;-78
2022/12/03 15:16:22;;;;;;;1999.90;999.90;;;3.50;99.90;;;;;;4956474;28;20051;-77
2022/12/03 15:18:48;;;;;;;1999.90;999.90;;;3.50;99.90;;;;;;4957855;28;20028;-77
2022/12/03 15:21:14;;;;;;;1999.90;999.90;;;3.50;99.90;;;;;;4955356;28;20042;-78
2022/12/03 15:23:40;;;;;;;1999.90;999.90;;;3.50;99.90;;;;;;4953376;28;20442;-78
2022/12/03 15:26:06;;;;;;;1999.90;999.90;;;3.50;99.90;;;;;;4957217;28;20048;-78
2022/12/03 15:28:32;;;;;;;1999.90;999.90;;;3.50;99.90;;;;;;4956221;28;20040;-79
2022/12/03 15:30:57;;;;;;;1999.90;999.90;;;3.50;99.90;;;;;;4957186;28;20039;-81
2022/12/03 15:33:23;;;;;;;1999.90;999.90;;;3.50;99.90;;;;;;4958315;28;20500;-81
2022/12/03 15:35:49;;;;;;;1999.90;999.90;;;3.50;99.90;;;;;;4956468;28;20048;-80
2022/12/03 15:38:14;;;;;;;1999.90;999.90;;;3.50;99.90;;;;;;4956166;28;20061;-78
2022/12/03 15:40:40;;;;;;;1999.90;999.90;;;3.50;99.90;;;;;;4955755;28;20431;-78
2022/12/03 15:43:07;;;;;;;1999.90;999.90;;;3.40;99.90;;;;;;4958074;28;20108;-79
2022/12/03 15:45:32;;;;;;;1999.90;999.90;;;3.40;99.90;;;;;;4956846;28;20066;-80
2022/12/03 15:48:13;;;;;;;1999.90;999.90;;;3.40;99.90;;;;;;4932262;28;20537;-79
2022/12/03 15:50:39;;;;;;;1999.90;999.90;;;3.40;99.90;;;;;;4957192;28;20039;-78
2022/12/03 15:53:04;;;;;;;1999.90;999.90;;;3.40;99.90;;;;;;4959554;28;20032;-79
2022/12/03 15:55:30;;;;;;;1999.90;999.90;;;3.40;99.90;;;;;;4959364;28;20497;-80
2022/12/03 15:57:56;;;;;;;1999.90;999.90;;;3.40;99.90;;;;;;4961899;28;20040;-80
2022/12/03 16:00:21;;;;;;;1999.90;999.90;;;3.40;99.90;;;;;;4961872;28;20129;-79
2022/12/03 16:02:47;;;;;;;1999.90;999.90;;;3.40;99.90;;;;;;4956482;28;20044;-78
2022/12/03 16:05:13;;;;;;;1999.90;999.90;;;3.40;99.90;;;;;;4956901;28;20172;-77
2022/12/03 16:07:39;;;;;;;1999.90;999.90;;;3.40;99.90;;;;;;4956559;28;20051;-78
2022/12/03 16:10:07;;;;;;;1999.90;999.90;;;3.40;99.90;;;;;;4955565;28;20031;-77
2022/12/03 16:12:33;;;;;;;1999.90;999.90;;;3.40;99.90;;;;;;4956669;28;20043;-76
2022/12/03 16:14:58;;;;;;;1999.90;999.90;;;3.40;99.90;;;;;;4955331;28;20031;-78
2022/12/03 16:17:24;;;;;;;1999.90;999.90;;;3.40;99.90;;;;;;4954896;28;20489;-79
2022/12/03 16:19:49;;;;;;;1999.90;999.90;;;3.40;99.90;;;;;;4957067;28;20043;-79
2022/12/03 16:22:15;;;;;;;1999.90;999.90;;;3.40;99.90;;;;;;4957604;28;20036;-78
2022/12/03 16:24:40;;;;;;;1999.90;999.90;;;3.40;99.90;;;;;;4957719;28;20034;-77
2022/12/03 16:27:06;;;;;;;1999.90;999.90;;;3.40;99.90;;;;;;4957742;28;20068;-79
2022/12/03 16:29:32;;;;;;;1999.90;999.90;;;3.40;99.90;;;;;;4956929;28;20036;-80
2022/12/03 16:31:58;;;;;;;1999.90;999.90;;;3.40;99.90;;;;;;4956852;28;20513;-77
2022/12/03 16:34:24;;;;;;;1999.90;999.90;;;3.30;99.90;;;;;;4956761;28;20060;-78
2022/12/03 16:36:50;;;;;;;1999.90;999.90;;;3.40;99.90;;;;;;4955891;28;20360;-77
2022/12/03 16:39:15;;;;;;;1999.90;999.90;;;3.40;99.90;;;;;;4956220;28;20044;-76
2022/12/03 16:41:41;;;;;;;1999.90;999.90;;;3.40;99.90;;;;;;4954939;28;20044;-78
2022/12/03 16:44:08;;;;;;;1999.90;999.90;;;3.40;99.90;;;;;;4957722;28;20040;-76
2022/12/03 16:46:34;;;;;;;1999.90;999.90;;;3.40;99.90;;;;;;4953685;28;20095;-76
2022/12/03 16:49:00;;;;;;;1999.90;999.90;;;3.30;99.90;;;;;;4966977;28;20067;-76